createdAt,value
2022-07-29T00:00:22.716Z,1011.44
2022-07-29T00:01:22.727Z,1011.38
2022-07-29T00:02:22.775Z,1011.37
2022-07-29T00:03:22.858Z,1011.36
2022-07-29T00:04:22.876Z,1011.39
2022-07-29T00:05:22.837Z,1011.37
2022-07-29T00:06:22.863Z,1011.37
2022-07-29T00:07:22.889Z,1011.37
2022-07-29T00:08:22.915Z,1011.41
2022-07-29T00:09:22.943Z,1011.34
2022-07-29T00:10:22.970Z,1011.36
2022-07-29T00:11:22.999Z,1011.38
2022-07-29T00:12:26.074Z,1011.36
2022-07-29T00:13:32.201Z,1011.38
2022-07-29T00:14:23.079Z,1011.34
2022-07-29T00:15:23.122Z,1011.37
2022-07-29T00:16:23.157Z,1011.34
2022-07-29T00:17:23.163Z,1011.37
2022-07-29T00:18:23.189Z,1011.36
2022-07-29T00:19:23.214Z,1011.34
2022-07-29T00:20:23.241Z,1011.32
2022-07-29T00:21:23.272Z,1011.27
2022-07-29T00:22:23.296Z,1011.24
2022-07-29T00:23:23.328Z,1011.26
2022-07-29T00:24:23.353Z,1011.24
2022-07-29T00:25:23.378Z,1011.22
2022-07-29T00:26:23.409Z,1011.21
2022-07-29T00:27:23.435Z,1011.20
2022-07-29T00:28:23.460Z,1011.18
2022-07-29T00:29:38.907Z,1011.23
2022-07-29T00:30:23.522Z,1011.20
2022-07-29T00:31:23.604Z,1011.22
2022-07-29T00:32:23.565Z,1011.21
2022-07-29T00:33:23.598Z,1011.22
2022-07-29T00:34:23.622Z,1011.19
2022-07-29T00:35:23.651Z,1011.21
2022-07-29T00:36:23.684Z,1011.22
2022-07-29T00:37:23.706Z,1011.18
2022-07-29T00:38:23.733Z,1011.19
2022-07-29T00:39:23.790Z,1011.21
2022-07-29T00:40:23.847Z,1011.18
2022-07-29T00:41:23.830Z,1011.18
2022-07-29T00:42:23.841Z,1011.15
2022-07-29T00:43:23.878Z,1011.17
2022-07-29T00:44:23.897Z,1011.11
2022-07-29T00:45:23.924Z,1011.14
2022-07-29T00:46:23.985Z,1011.14
2022-07-29T00:47:23.988Z,1011.14
2022-07-29T00:48:24.009Z,1011.07
2022-07-29T00:49:24.101Z,1011.08
2022-07-29T00:50:24.059Z,1011.05
2022-07-29T00:51:24.089Z,1011.06
2022-07-29T00:52:24.116Z,1011.01
2022-07-29T00:53:24.139Z,1011.03
2022-07-29T00:54:24.170Z,1010.98
2022-07-29T00:55:24.199Z,1011.00
2022-07-29T00:56:24.225Z,1010.93
2022-07-29T00:57:24.248Z,1010.92
2022-07-29T00:58:24.280Z,1010.92
2022-07-29T00:59:24.307Z,1010.93
2022-07-29T01:00:24.452Z,1010.93
2022-07-29T01:01:24.449Z,1010.89
2022-07-29T01:02:31.650Z,1010.89
2022-07-29T01:05:49.914Z,1010.87
2022-07-29T01:06:32.409Z,1010.84
2022-07-29T01:08:36.427Z,1010.80
2022-07-29T01:09:46.168Z,1010.78
2022-07-29T01:11:41.442Z,1010.76
2022-07-29T01:12:40.484Z,1010.77
2022-07-29T01:14:44.981Z,1010.81
2022-07-29T01:15:49.462Z,1010.77
2022-07-29T01:17:52.775Z,1010.77
2022-07-29T01:18:48.551Z,1010.81
2022-07-29T01:20:53.052Z,1010.74
2022-07-29T01:21:52.589Z,1010.76
2022-07-29T01:23:56.618Z,1010.73
2022-07-29T01:24:56.630Z,1010.72
2022-07-29T01:26:50.111Z,1010.72
2022-07-29T01:27:49.587Z,1010.72
2022-07-29T01:29:53.604Z,1010.63
2022-07-29T01:30:53.620Z,1010.62
2022-07-29T01:32:58.121Z,1010.58
2022-07-29T01:33:57.660Z,1010.57
2022-07-29T01:36:02.153Z,1010.60
2022-07-29T01:37:01.693Z,1010.58
2022-07-29T01:39:05.713Z,1010.57
2022-07-29T01:40:05.733Z,1010.55
2022-07-29T01:42:13.234Z,1010.53
2022-07-29T01:43:09.771Z,1010.53
2022-07-29T01:45:13.841Z,1010.53
2022-07-29T01:46:13.833Z,1010.54
2022-07-29T01:47:13.836Z,1010.54
2022-07-29T01:48:13.862Z,1010.54
2022-07-29T01:49:13.924Z,1010.54
2022-07-29T01:50:13.916Z,1010.55
2022-07-29T01:51:13.942Z,1010.53
2022-07-29T01:52:13.972Z,1010.53
2022-07-29T01:53:13.996Z,1010.55
2022-07-29T01:54:14.193Z,1010.55
2022-07-29T01:55:14.048Z,1010.51
2022-07-29T01:56:14.072Z,1010.55
2022-07-29T01:57:14.104Z,1010.53
2022-07-29T01:58:14.127Z,1010.53
2022-07-29T01:59:14.172Z,1010.52
2022-07-29T02:00:14.188Z,1010.50
2022-07-29T02:01:14.210Z,1010.53
2022-07-29T02:02:14.305Z,1010.49
2022-07-29T02:03:14.280Z,1010.45
2022-07-29T02:04:28.959Z,1010.44
2022-07-29T02:05:14.431Z,1010.40
2022-07-29T02:06:14.353Z,1010.36
2022-07-29T02:07:14.375Z,1010.35
2022-07-29T02:08:14.406Z,1010.36
2022-07-29T02:09:14.427Z,1010.34
2022-07-29T02:10:14.462Z,1010.34
2022-07-29T02:11:14.488Z,1010.32
2022-07-29T02:12:14.507Z,1010.33
2022-07-29T02:13:14.537Z,1010.36
2022-07-29T02:14:14.763Z,1010.34
2022-07-29T02:15:14.600Z,1010.31
2022-07-29T02:16:14.659Z,1010.34
2022-07-29T02:17:14.648Z,1010.32
2022-07-29T02:18:14.671Z,1010.31
2022-07-29T02:19:14.701Z,1010.27
2022-07-29T02:20:14.726Z,1010.24
2022-07-29T02:21:15.619Z,1010.22
2022-07-29T02:22:14.781Z,1010.24
2022-07-29T02:23:14.807Z,1010.25
2022-07-29T02:24:15.122Z,1010.26
2022-07-29T02:25:14.858Z,1010.22
2022-07-29T02:26:14.889Z,1010.25
2022-07-29T02:27:14.916Z,1010.23
2022-07-29T02:28:14.943Z,1010.22
2022-07-29T02:29:14.972Z,1010.23
2022-07-29T02:30:14.997Z,1010.21
2022-07-29T02:31:15.090Z,1010.21
2022-07-29T02:32:15.056Z,1010.19
2022-07-29T02:33:15.079Z,1010.18
2022-07-29T02:34:15.466Z,1010.13
2022-07-29T02:35:15.135Z,1010.16
2022-07-29T02:36:15.154Z,1010.13
2022-07-29T02:37:15.180Z,1010.17
2022-07-29T02:38:15.207Z,1010.16
2022-07-29T02:39:15.237Z,1010.21
2022-07-29T02:40:15.275Z,1010.21
2022-07-29T02:41:15.292Z,1010.21
2022-07-29T02:42:15.320Z,1010.18
2022-07-29T02:43:15.348Z,1010.20
2022-07-29T02:44:15.669Z,1010.23
2022-07-29T02:45:15.399Z,1010.26
2022-07-29T02:46:29.060Z,1010.27
2022-07-29T02:47:15.455Z,1010.26
2022-07-29T02:48:15.481Z,1010.27
2022-07-29T02:49:15.633Z,1010.28
2022-07-29T02:50:15.532Z,1010.26
2022-07-29T02:51:43.484Z,1010.24
2022-07-29T02:52:15.597Z,1010.29
2022-07-29T02:53:15.615Z,1010.24
2022-07-29T02:54:15.920Z,1010.26
2022-07-29T02:55:15.670Z,1010.26
2022-07-29T02:56:15.702Z,1010.25
2022-07-29T02:57:15.725Z,1010.26
2022-07-29T02:58:15.750Z,1010.27
2022-07-29T02:59:15.776Z,1010.23
2022-07-29T03:00:15.798Z,1010.26
2022-07-29T03:01:21.246Z,1010.26
2022-07-29T03:02:15.964Z,1010.29
2022-07-29T03:03:15.882Z,1010.30
2022-07-29T03:04:16.293Z,1010.34
2022-07-29T03:05:15.958Z,1010.35
2022-07-29T03:06:37.393Z,1010.31
2022-07-29T03:07:15.991Z,1010.30
2022-07-29T03:08:16.022Z,1010.30
2022-07-29T03:09:16.047Z,1010.30
2022-07-29T03:10:16.072Z,1010.33
2022-07-29T03:11:16.097Z,1010.27
2022-07-29T03:12:16.131Z,1010.25
2022-07-29T03:13:16.152Z,1010.28
2022-07-29T03:14:16.519Z,1010.29
2022-07-29T03:15:16.235Z,1010.27
2022-07-29T03:16:16.308Z,1010.27
2022-07-29T03:17:16.265Z,1010.28
2022-07-29T03:18:16.287Z,1010.29
2022-07-29T03:19:16.314Z,1010.26
2022-07-29T03:20:16.340Z,1010.30
2022-07-29T03:21:16.363Z,1010.28
2022-07-29T03:22:16.387Z,1010.31
2022-07-29T03:23:16.416Z,1010.30
2022-07-29T03:24:16.928Z,1010.29
2022-07-29T03:25:16.473Z,1010.23
2022-07-29T03:26:16.501Z,1010.22
2022-07-29T03:27:16.534Z,1010.25
2022-07-29T03:28:16.586Z,1010.25
2022-07-29T03:29:16.581Z,1010.26
2022-07-29T03:30:18.398Z,1010.29
2022-07-29T03:31:16.722Z,1010.28
2022-07-29T03:32:16.668Z,1010.29
2022-07-29T03:33:16.695Z,1010.26
2022-07-29T03:34:17.054Z,1010.25
2022-07-29T03:35:16.750Z,1010.30
2022-07-29T03:36:16.769Z,1010.31
2022-07-29T03:37:16.794Z,1010.24
2022-07-29T03:38:16.825Z,1010.23
2022-07-29T03:39:16.849Z,1010.23
2022-07-29T03:40:16.875Z,1010.20
2022-07-29T03:41:16.914Z,1010.17
2022-07-29T03:42:16.923Z,1010.15
2022-07-29T03:43:16.958Z,1010.13
2022-07-29T03:44:17.467Z,1010.14
2022-07-29T03:45:17.008Z,1010.11
2022-07-29T03:46:17.113Z,1010.15
2022-07-29T03:47:17.061Z,1010.15
2022-07-29T03:48:17.093Z,1010.10
2022-07-29T03:49:17.195Z,1010.11
2022-07-29T03:50:17.195Z,1010.12
2022-07-29T03:51:17.167Z,1010.13
2022-07-29T03:52:17.196Z,1010.13
2022-07-29T03:53:17.224Z,1010.16
2022-07-29T03:54:17.502Z,1010.19
2022-07-29T03:55:17.273Z,1010.20
2022-07-29T03:56:17.300Z,1010.23
2022-07-29T03:57:17.326Z,1010.22
2022-07-29T03:58:17.352Z,1010.22
2022-07-29T03:59:17.377Z,1010.21
2022-07-29T04:00:17.420Z,1010.23
2022-07-29T04:01:17.477Z,1010.22
2022-07-29T04:02:21.853Z,1010.20
2022-07-29T04:03:17.504Z,1010.24
2022-07-29T04:04:18.054Z,1010.22
2022-07-29T04:05:17.553Z,1010.23
2022-07-29T04:06:17.563Z,1010.21
2022-07-29T04:07:17.586Z,1010.22
2022-07-29T04:08:17.616Z,1010.23
2022-07-29T04:09:17.646Z,1010.20
2022-07-29T04:10:17.666Z,1010.17
2022-07-29T04:11:17.697Z,1010.15
2022-07-29T04:12:17.723Z,1010.17
2022-07-29T04:13:17.749Z,1010.18
2022-07-29T04:14:18.341Z,1010.18
2022-07-29T04:15:17.812Z,1010.22
2022-07-29T04:16:17.894Z,1010.22
2022-07-29T04:17:17.853Z,1010.22
2022-07-29T04:18:17.877Z,1010.24
2022-07-29T04:19:17.909Z,1010.19
2022-07-29T04:20:17.932Z,1010.22
2022-07-29T04:21:17.962Z,1010.24
2022-07-29T04:22:17.990Z,1010.26
2022-07-29T04:23:18.014Z,1010.28
2022-07-29T04:24:18.752Z,1010.25
2022-07-29T04:25:18.068Z,1010.28
2022-07-29T04:26:18.092Z,1010.27
2022-07-29T04:27:18.123Z,1010.31
2022-07-29T04:28:18.141Z,1010.28
2022-07-29T04:29:18.178Z,1010.28
2022-07-29T04:30:18.203Z,1010.26
2022-07-29T04:31:21.286Z,1010.24
2022-07-29T04:32:18.261Z,1010.26
2022-07-29T04:33:18.279Z,1010.27
2022-07-29T04:34:19.018Z,1010.23
2022-07-29T04:35:18.331Z,1010.25
2022-07-29T04:36:28.899Z,1010.24
2022-07-29T04:37:18.384Z,1010.22
2022-07-29T04:38:18.415Z,1010.23
2022-07-29T04:39:22.786Z,1010.19
2022-07-29T04:40:18.469Z,1010.21
2022-07-29T04:41:18.497Z,1010.21
2022-07-29T04:42:18.521Z,1010.20
2022-07-29T04:43:22.468Z,1010.19
2022-07-29T04:44:18.994Z,1010.15
2022-07-29T04:45:22.682Z,1010.19
2022-07-29T04:46:18.647Z,1010.23
2022-07-29T04:47:18.658Z,1010.22
2022-07-29T04:48:18.681Z,1010.20
2022-07-29T04:49:18.815Z,1010.14
2022-07-29T04:50:18.737Z,1010.09
2022-07-29T04:51:18.770Z,1010.03
2022-07-29T04:52:18.788Z,1010.07
2022-07-29T04:53:18.837Z,1010.09
2022-07-29T04:54:19.333Z,1010.10
2022-07-29T04:55:18.876Z,1010.14
2022-07-29T04:56:18.901Z,1010.14
2022-07-29T04:57:18.928Z,1010.18
2022-07-29T04:58:18.959Z,1010.18
2022-07-29T04:59:18.972Z,1010.19
2022-07-29T05:00:19.007Z,1010.19
2022-07-29T05:01:19.108Z,1010.16
2022-07-29T05:02:19.087Z,1010.18
2022-07-29T05:03:19.086Z,1010.17
2022-07-29T05:04:19.974Z,1010.19
2022-07-29T05:05:19.137Z,1010.17
2022-07-29T05:06:19.167Z,1010.21
2022-07-29T05:07:19.189Z,1010.19
2022-07-29T05:08:19.223Z,1010.25
2022-07-29T05:09:19.246Z,1010.23
2022-07-29T05:10:19.276Z,1010.21
2022-07-29T05:11:21.826Z,1010.23
2022-07-29T05:12:19.325Z,1010.18
2022-07-29T05:13:19.358Z,1010.18
2022-07-29T05:14:19.995Z,1010.20
2022-07-29T05:15:19.408Z,1010.22
2022-07-29T05:16:19.470Z,1010.18
2022-07-29T05:17:19.463Z,1010.19
2022-07-29T05:18:19.489Z,1010.20
2022-07-29T05:19:19.516Z,1010.21
2022-07-29T05:20:19.543Z,1010.20
2022-07-29T05:21:19.574Z,1010.19
2022-07-29T05:22:19.600Z,1010.17
2022-07-29T05:23:19.627Z,1010.16
2022-07-29T05:24:20.112Z,1010.17
2022-07-29T05:25:19.679Z,1010.16
2022-07-29T05:26:19.704Z,1010.10
2022-07-29T05:27:19.735Z,1010.13
2022-07-29T05:28:19.764Z,1010.08
2022-07-29T05:29:43.983Z,1010.12
2022-07-29T05:30:19.814Z,1010.07
2022-07-29T05:31:19.947Z,1010.05
2022-07-29T05:32:19.868Z,1010.10
2022-07-29T05:33:35.022Z,1010.09
2022-07-29T05:34:19.929Z,1010.10
2022-07-29T05:35:19.951Z,1010.12
2022-07-29T05:36:19.979Z,1010.15
2022-07-29T05:37:20.011Z,1010.12
2022-07-29T05:38:20.033Z,1010.19
2022-07-29T05:39:20.065Z,1010.20
2022-07-29T05:40:20.090Z,1010.19
2022-07-29T05:41:20.118Z,1010.22
2022-07-29T05:42:20.146Z,1010.23
2022-07-29T05:43:20.175Z,1010.24
2022-07-29T05:44:20.204Z,1010.27
2022-07-29T05:45:20.233Z,1010.30
2022-07-29T05:46:20.315Z,1010.29
2022-07-29T05:47:20.287Z,1010.30
2022-07-29T05:48:20.313Z,1010.29
2022-07-29T05:49:26.760Z,1010.32
2022-07-29T05:50:20.366Z,1010.32
2022-07-29T05:51:20.390Z,1010.34
2022-07-29T05:52:20.418Z,1010.37
2022-07-29T05:53:21.067Z,1010.39
2022-07-29T05:54:20.478Z,1010.35
2022-07-29T05:55:20.509Z,1010.38
2022-07-29T05:56:20.533Z,1010.35
2022-07-29T05:57:20.561Z,1010.37
2022-07-29T05:58:20.590Z,1010.37
2022-07-29T05:59:20.617Z,1010.37
2022-07-29T06:00:20.646Z,1010.40
2022-07-29T06:01:20.752Z,1010.41
2022-07-29T06:02:20.707Z,1010.47
2022-07-29T06:03:20.733Z,1010.43
2022-07-29T06:04:21.256Z,1010.45
2022-07-29T06:05:20.789Z,1010.46
2022-07-29T06:06:20.816Z,1010.49
2022-07-29T06:07:20.847Z,1010.45
2022-07-29T06:08:20.873Z,1010.48
2022-07-29T06:09:20.905Z,1010.47
2022-07-29T06:10:20.963Z,1010.49
2022-07-29T06:11:20.959Z,1010.52
2022-07-29T06:12:20.991Z,1010.49
2022-07-29T06:13:21.019Z,1010.51
2022-07-29T06:14:21.050Z,1010.52
2022-07-29T06:15:21.084Z,1010.49
2022-07-29T06:16:30.014Z,1010.53
2022-07-29T06:17:21.135Z,1010.55
2022-07-29T06:18:21.160Z,1010.56
2022-07-29T06:19:21.193Z,1010.57
2022-07-29T06:20:26.930Z,1010.57
2022-07-29T06:21:21.253Z,1010.58
2022-07-29T06:22:21.282Z,1010.56
2022-07-29T06:23:21.307Z,1010.57
2022-07-29T06:24:21.346Z,1010.59
2022-07-29T06:25:21.369Z,1010.60
2022-07-29T06:26:31.416Z,1010.58
2022-07-29T06:27:21.428Z,1010.59
2022-07-29T06:28:21.461Z,1010.61
2022-07-29T06:29:21.494Z,1010.58
2022-07-29T06:30:21.521Z,1010.61
2022-07-29T06:31:21.609Z,1010.60
2022-07-29T06:32:23.005Z,1010.60
2022-07-29T06:33:21.611Z,1010.57
2022-07-29T06:34:21.642Z,1010.57
2022-07-29T06:35:39.066Z,1010.57
2022-07-29T06:36:22.951Z,1010.59
2022-07-29T06:37:21.733Z,1010.58
2022-07-29T06:38:31.557Z,1010.55
2022-07-29T06:39:21.922Z,1010.55
2022-07-29T06:40:21.819Z,1010.53
2022-07-29T06:41:21.851Z,1010.52
2022-07-29T06:42:21.880Z,1010.52
2022-07-29T06:43:21.921Z,1010.53
2022-07-29T06:44:21.944Z,1010.53
2022-07-29T06:45:21.967Z,1010.52
2022-07-29T06:46:22.203Z,1010.50
2022-07-29T06:47:22.025Z,1010.49
2022-07-29T06:48:22.063Z,1010.48
2022-07-29T06:49:22.129Z,1010.53
2022-07-29T06:50:22.124Z,1010.46
2022-07-29T06:51:23.301Z,1010.50
2022-07-29T06:52:22.181Z,1010.54
2022-07-29T06:53:22.212Z,1010.53
2022-07-29T06:54:22.256Z,1010.46
2022-07-29T06:55:24.966Z,1010.48
2022-07-29T06:56:22.307Z,1010.49
2022-07-29T06:57:22.335Z,1010.50
2022-07-29T06:58:22.364Z,1010.55
2022-07-29T06:59:30.782Z,1010.55
2022-07-29T07:00:22.433Z,1010.56
2022-07-29T07:01:22.534Z,1010.54
2022-07-29T07:02:22.553Z,1010.58
2022-07-29T07:03:22.526Z,1010.59
2022-07-29T07:04:29.731Z,1010.57
2022-07-29T07:06:16.053Z,1010.66
2022-07-29T07:07:15.534Z,1010.72
2022-07-29T07:09:19.571Z,1010.71
2022-07-29T07:10:19.594Z,1010.67
2022-07-29T07:12:24.091Z,1010.67
2022-07-29T07:13:23.665Z,1010.63
2022-07-29T07:15:39.073Z,1010.70
2022-07-29T07:16:27.736Z,1010.77
2022-07-29T07:18:32.210Z,1010.79
2022-07-29T07:19:31.797Z,1010.81
2022-07-29T07:21:36.268Z,1010.84
2022-07-29T07:22:38.918Z,1010.88
2022-07-29T07:24:39.864Z,1010.86
2022-07-29T07:25:39.882Z,1010.87
2022-07-29T07:27:44.381Z,1010.83
2022-07-29T07:28:43.941Z,1010.83
2022-07-29T07:29:44.241Z,1010.79
2022-07-29T07:30:44.015Z,1010.84
2022-07-29T07:31:44.105Z,1010.80
2022-07-29T07:32:44.067Z,1010.81
2022-07-29T07:33:44.098Z,1010.80
2022-07-29T07:34:44.126Z,1010.81
2022-07-29T07:35:44.164Z,1010.79
2022-07-29T07:36:44.191Z,1010.76
2022-07-29T07:37:44.222Z,1010.77
2022-07-29T07:38:44.258Z,1010.77
2022-07-29T07:39:44.286Z,1010.77
2022-07-29T07:40:44.317Z,1010.83
2022-07-29T07:41:44.352Z,1010.80
2022-07-29T07:42:44.377Z,1010.78
2022-07-29T07:43:44.413Z,1010.78
2022-07-29T07:45:10.928Z,1010.82
2022-07-29T07:45:44.569Z,1010.81
2022-07-29T07:46:44.506Z,1010.78
2022-07-29T07:47:44.534Z,1010.79
2022-07-29T07:48:44.601Z,1010.81
2022-07-29T07:49:44.601Z,1010.84
2022-07-29T07:50:44.634Z,1010.79
2022-07-29T07:51:44.659Z,1010.77
2022-07-29T07:52:44.692Z,1010.79
2022-07-29T07:53:44.719Z,1010.78
2022-07-29T07:54:44.756Z,1010.84
2022-07-29T07:56:09.237Z,1010.82
2022-07-29T07:56:44.823Z,1010.81
2022-07-29T07:57:44.847Z,1010.80
2022-07-29T07:58:44.881Z,1010.80
2022-07-29T07:59:44.918Z,1010.78
2022-07-29T08:00:45.024Z,1010.79
2022-07-29T08:01:47.794Z,1010.81
2022-07-29T08:02:45.048Z,1010.81
2022-07-29T08:03:45.039Z,1010.81
2022-07-29T08:04:45.069Z,1010.83
2022-07-29T08:05:45.103Z,1010.87
2022-07-29T08:06:45.141Z,1010.86
2022-07-29T08:07:45.164Z,1010.85
2022-07-29T08:08:45.195Z,1010.84
2022-07-29T08:09:45.229Z,1010.83
2022-07-29T08:10:45.261Z,1010.85
2022-07-29T08:11:51.614Z,1010.80
2022-07-29T08:12:45.327Z,1010.80
2022-07-29T08:13:45.357Z,1010.85
2022-07-29T08:14:45.383Z,1010.85
2022-07-29T08:15:45.421Z,1010.83
2022-07-29T08:16:45.568Z,1010.81
2022-07-29T08:17:45.502Z,1010.84
2022-07-29T08:18:45.515Z,1010.82
2022-07-29T08:19:45.545Z,1010.80
2022-07-29T08:20:45.576Z,1010.81
2022-07-29T08:21:45.617Z,1010.83
2022-07-29T08:22:45.645Z,1010.79
2022-07-29T08:23:49.653Z,1010.78
2022-07-29T08:24:45.705Z,1010.77
2022-07-29T08:25:45.786Z,1010.82
2022-07-29T08:26:45.772Z,1010.76
2022-07-29T08:27:45.809Z,1010.73
2022-07-29T08:28:45.834Z,1010.74
2022-07-29T08:29:45.874Z,1010.75
2022-07-29T08:30:45.902Z,1010.72
2022-07-29T08:31:45.951Z,1010.73
2022-07-29T08:32:54.824Z,1010.74
2022-07-29T08:33:46.000Z,1010.75
2022-07-29T08:34:46.034Z,1010.69
2022-07-29T08:35:46.067Z,1010.68
2022-07-29T08:36:46.096Z,1010.73
2022-07-29T08:37:46.127Z,1010.69
2022-07-29T08:38:46.156Z,1010.72
2022-07-29T08:39:46.191Z,1010.71
2022-07-29T08:40:46.247Z,1010.77
2022-07-29T08:41:57.411Z,1010.77
2022-07-29T08:42:46.290Z,1010.79
2022-07-29T08:43:46.321Z,1010.76
2022-07-29T08:44:46.352Z,1010.78
2022-07-29T08:45:48.212Z,1010.74
2022-07-29T08:46:46.442Z,1010.75
2022-07-29T08:47:46.451Z,1010.73
2022-07-29T08:48:46.553Z,1010.77
2022-07-29T08:49:46.516Z,1010.71
2022-07-29T08:50:46.775Z,1010.75
2022-07-29T08:51:49.686Z,1010.72
2022-07-29T08:52:46.613Z,1010.74
2022-07-29T08:53:46.649Z,1010.74
2022-07-29T08:54:46.681Z,1010.73
2022-07-29T08:55:46.714Z,1010.72
2022-07-29T08:56:46.748Z,1010.73
2022-07-29T08:57:51.898Z,1010.74
2022-07-29T08:58:50.699Z,1010.70
2022-07-29T08:59:46.845Z,1010.67
2022-07-29T09:00:46.945Z,1010.69
2022-07-29T09:01:46.953Z,1010.69
2022-07-29T09:02:46.999Z,1010.66
2022-07-29T09:03:47.017Z,1010.62
2022-07-29T09:04:47.011Z,1010.60
2022-07-29T09:05:48.311Z,1010.56
2022-07-29T09:06:47.076Z,1010.59
2022-07-29T09:07:47.151Z,1010.60
2022-07-29T09:08:47.140Z,1010.59
2022-07-29T09:09:47.174Z,1010.60
2022-07-29T09:10:47.216Z,1010.56
2022-07-29T09:11:47.237Z,1010.56
2022-07-29T09:12:47.279Z,1010.60
2022-07-29T09:13:47.307Z,1010.57
2022-07-29T09:14:47.338Z,1010.61
2022-07-29T09:15:47.402Z,1010.55
2022-07-29T09:16:59.642Z,1010.59
2022-07-29T09:17:47.536Z,1010.58
2022-07-29T09:18:47.473Z,1010.55
2022-07-29T09:19:47.504Z,1010.53
2022-07-29T09:20:47.538Z,1010.51
2022-07-29T09:21:47.570Z,1010.53
2022-07-29T09:22:47.602Z,1010.62
2022-07-29T09:23:47.635Z,1010.56
2022-07-29T09:24:47.673Z,1010.55
2022-07-29T09:25:47.698Z,1010.53
2022-07-29T09:26:47.735Z,1010.52
2022-07-29T09:27:47.763Z,1010.57
2022-07-29T09:28:47.875Z,1010.45
2022-07-29T09:29:47.833Z,1010.49
2022-07-29T09:30:47.867Z,1010.50
2022-07-29T09:31:47.985Z,1010.53
2022-07-29T09:32:47.933Z,1010.45
2022-07-29T09:33:47.964Z,1010.46
2022-07-29T09:34:48.000Z,1010.48
2022-07-29T09:35:56.534Z,1010.48
2022-07-29T09:36:48.068Z,1010.55
2022-07-29T09:37:48.099Z,1010.46
2022-07-29T09:38:48.127Z,1010.49
2022-07-29T09:39:48.167Z,1010.49
2022-07-29T09:40:48.196Z,1010.52
2022-07-29T09:41:48.230Z,1010.49
2022-07-29T09:42:48.264Z,1010.53
2022-07-29T09:43:48.295Z,1010.52
2022-07-29T09:44:48.330Z,1010.49
2022-07-29T09:45:48.365Z,1010.48
2022-07-29T09:46:48.526Z,1010.47
2022-07-29T09:47:48.432Z,1010.49
2022-07-29T09:48:48.502Z,1010.48
2022-07-29T09:49:48.504Z,1010.44
2022-07-29T09:50:48.540Z,1010.44
2022-07-29T09:51:48.564Z,1010.44
2022-07-29T09:52:48.609Z,1010.42
2022-07-29T09:53:48.639Z,1010.43
2022-07-29T09:54:48.672Z,1010.44
2022-07-29T09:55:48.703Z,1010.50
2022-07-29T09:56:48.740Z,1010.45
2022-07-29T09:57:48.783Z,1010.46
2022-07-29T09:58:48.803Z,1010.44
2022-07-29T09:59:49.955Z,1010.48
2022-07-29T10:00:48.943Z,1010.47
2022-07-29T10:01:48.907Z,1010.49
2022-07-29T10:02:48.950Z,1010.47
2022-07-29T10:03:49.031Z,1010.50
2022-07-29T10:04:49.014Z,1010.50
2022-07-29T10:05:49.045Z,1010.43
2022-07-29T10:06:49.075Z,1010.45
2022-07-29T10:07:53.464Z,1010.45
2022-07-29T10:08:49.147Z,1010.44
2022-07-29T10:09:49.182Z,1010.43
2022-07-29T10:10:49.230Z,1010.48
2022-07-29T10:11:49.981Z,1010.46
2022-07-29T10:12:49.287Z,1010.42
2022-07-29T10:13:49.322Z,1010.41
2022-07-29T10:14:49.352Z,1010.43
2022-07-29T10:15:49.425Z,1010.38
2022-07-29T10:16:49.417Z,1010.37
2022-07-29T10:17:49.450Z,1010.32
2022-07-29T10:18:49.488Z,1010.31
2022-07-29T10:19:49.515Z,1010.24
2022-07-29T10:20:49.552Z,1010.25
2022-07-29T10:21:49.591Z,1010.24
2022-07-29T10:22:53.945Z,1010.20
2022-07-29T10:23:49.659Z,1010.21
2022-07-29T10:24:49.723Z,1010.19
2022-07-29T10:25:49.720Z,1010.24
2022-07-29T10:26:49.753Z,1010.23
2022-07-29T10:27:49.789Z,1010.27
2022-07-29T10:28:49.823Z,1010.26
2022-07-29T10:29:49.853Z,1010.25
2022-07-29T10:30:49.888Z,1010.24
2022-07-29T10:31:49.976Z,1010.22
2022-07-29T10:32:53.829Z,1010.20
2022-07-29T10:33:49.992Z,1010.24
2022-07-29T10:34:50.030Z,1010.25
2022-07-29T10:35:50.055Z,1010.21
2022-07-29T10:36:50.094Z,1010.20
2022-07-29T10:37:50.125Z,1010.22
2022-07-29T10:38:50.161Z,1010.20
2022-07-29T10:39:50.210Z,1010.23
2022-07-29T10:40:50.227Z,1010.23
2022-07-29T10:41:50.262Z,1010.23
2022-07-29T10:42:50.301Z,1010.20
2022-07-29T10:43:51.277Z,1010.20
2022-07-29T10:44:50.372Z,1010.20
2022-07-29T10:45:50.398Z,1010.17
2022-07-29T10:46:50.474Z,1010.29
2022-07-29T10:47:50.466Z,1010.24
2022-07-29T10:48:50.538Z,1010.25
2022-07-29T10:49:50.535Z,1010.22
2022-07-29T10:50:50.568Z,1010.25
2022-07-29T10:51:50.599Z,1010.30
2022-07-29T10:52:50.641Z,1010.26
2022-07-29T10:53:51.039Z,1010.21
2022-07-29T10:54:50.702Z,1010.22
2022-07-29T10:55:50.738Z,1010.21
2022-07-29T10:56:50.773Z,1010.21
2022-07-29T10:57:57.687Z,1010.22
2022-07-29T10:58:52.706Z,1010.22
2022-07-29T10:59:53.050Z,1010.20
2022-07-29T11:00:50.913Z,1010.20
2022-07-29T11:01:53.657Z,1010.22
2022-07-29T11:02:51.210Z,1010.17
2022-07-29T11:03:53.825Z,1010.18
2022-07-29T11:04:51.048Z,1010.16
2022-07-29T11:05:51.081Z,1010.12
2022-07-29T11:06:51.116Z,1010.12
2022-07-29T11:07:51.151Z,1010.09
2022-07-29T11:08:51.181Z,1010.10
2022-07-29T11:09:51.213Z,1010.11
2022-07-29T11:10:51.261Z,1010.15
2022-07-29T11:11:51.577Z,1010.08
2022-07-29T11:12:51.320Z,1010.09
2022-07-29T11:13:51.350Z,1010.12
2022-07-29T11:14:51.395Z,1010.16
2022-07-29T11:15:51.423Z,1010.19
2022-07-29T11:16:51.457Z,1010.24
2022-07-29T11:17:53.006Z,1010.21
2022-07-29T11:18:51.529Z,1010.20
2022-07-29T11:19:52.322Z,1010.22
2022-07-29T11:20:51.592Z,1010.19
2022-07-29T11:21:55.135Z,1010.10
2022-07-29T11:22:51.665Z,1010.14
2022-07-29T11:23:51.703Z,1010.11
2022-07-29T11:24:51.732Z,1010.12
2022-07-29T11:25:52.643Z,1010.13
2022-07-29T11:26:51.802Z,1010.14
2022-07-29T11:27:51.837Z,1010.20
2022-07-29T11:28:51.865Z,1010.16
2022-07-29T11:29:51.903Z,1010.19
2022-07-29T11:30:51.947Z,1010.19
2022-07-29T11:31:51.968Z,1010.17
2022-07-29T11:32:52.005Z,1010.13
2022-07-29T11:33:56.021Z,1010.12
2022-07-29T11:34:52.069Z,1010.11
2022-07-29T11:36:00.889Z,1010.13
2022-07-29T11:36:52.139Z,1010.10
2022-07-29T11:38:52.209Z,1010.13
2022-07-29T11:39:52.243Z,1010.10
2022-07-29T11:40:52.278Z,1010.08
2022-07-29T11:41:52.307Z,1010.05
2022-07-29T11:42:52.578Z,1010.07
2022-07-29T11:43:52.391Z,1010.11
2022-07-29T11:44:52.415Z,1010.11
2022-07-29T11:45:52.446Z,1010.14
2022-07-29T11:46:53.928Z,1010.12
2022-07-29T11:47:52.602Z,1010.13
2022-07-29T11:48:52.597Z,1010.27
2022-07-29T11:49:52.584Z,1010.14
2022-07-29T11:50:52.639Z,1010.17
2022-07-29T11:51:52.657Z,1010.11
2022-07-29T11:52:52.701Z,1010.14
2022-07-29T11:53:52.805Z,1010.15
2022-07-29T11:55:52.786Z,1010.17
2022-07-29T11:56:52.818Z,1010.17
2022-07-29T11:58:03.841Z,1010.12
2022-07-29T11:58:52.897Z,1010.10
2022-07-29T11:59:52.919Z,1010.13
2022-07-29T12:00:52.966Z,1010.14
2022-07-29T12:02:06.680Z,1010.15
2022-07-29T12:02:53.027Z,1010.14
2022-07-29T12:03:53.088Z,1010.16
2022-07-29T12:04:53.113Z,1010.14
2022-07-29T12:05:53.128Z,1010.12
2022-07-29T12:06:53.163Z,1010.11
2022-07-29T12:07:03.499Z,1010.14
2022-07-29T12:07:53.194Z,1010.16
2022-07-29T12:08:53.229Z,1010.11
2022-07-29T12:09:53.265Z,1010.11
2022-07-29T12:10:53.301Z,1010.15
2022-07-29T12:11:53.331Z,1010.12
2022-07-29T12:12:53.375Z,1010.12
2022-07-29T12:13:53.400Z,1010.11
2022-07-29T12:14:53.441Z,1010.10
2022-07-29T12:15:53.522Z,1010.08
2022-07-29T12:16:53.573Z,1010.06
2022-07-29T12:17:53.536Z,1010.06
2022-07-29T12:18:53.570Z,1010.06
2022-07-29T12:19:53.616Z,1010.08
2022-07-29T12:20:53.642Z,1010.09
2022-07-29T12:21:56.631Z,1010.08
2022-07-29T12:22:53.711Z,1010.11
2022-07-29T12:23:53.741Z,1010.07
2022-07-29T12:25:02.201Z,1010.09
2022-07-29T12:25:53.814Z,1010.09
2022-07-29T12:26:53.841Z,1010.10
2022-07-29T12:27:53.874Z,1010.17
2022-07-29T12:28:54.743Z,1010.12
2022-07-29T12:29:53.944Z,1010.13
2022-07-29T12:30:53.977Z,1010.16